sensor_id;sensor_type;location;lat;lon;timestamp;P1;durP1;ratioP1;P2;durP2;ratioP2
54959;SDS011;40860;51.710;8.736;2024-02-14T00:02:07;6.70;;;3.47;;
54959;SDS011;40860;51.710;8.736;2024-02-14T00:06:10;5.47;;;3.50;;
54959;SDS011;40860;51.710;8.736;2024-02-14T00:10:14;5.88;;;3.95;;
54959;SDS011;40860;51.710;8.736;2024-02-14T00:14:17;5.63;;;3.58;;
54959;SDS011;40860;51.710;8.736;2024-02-14T00:18:23;5.07;;;3.60;;
54959;SDS011;40860;51.710;8.736;2024-02-14T00:22:26;3.92;;;3.53;;
54959;SDS011;40860;51.710;8.736;2024-02-14T00:26:29;5.75;;;3.22;;
54959;SDS011;40860;51.710;8.736;2024-02-14T00:30:32;4.40;;;3.28;;
54959;SDS011;40860;51.710;8.736;2024-02-14T00:34:37;5.68;;;3.22;;
54959;SDS011;40860;51.710;8.736;2024-02-14T00:38:40;5.13;;;3.22;;
54959;SDS011;40860;51.710;8.736;2024-02-14T00:42:44;3.13;;;2.90;;
54959;SDS011;40860;51.710;8.736;2024-02-14T00:46:47;4.63;;;3.00;;
54959;SDS011;40860;51.710;8.736;2024-02-14T00:50:51;4.38;;;3.30;;
54959;SDS011;40860;51.710;8.736;2024-02-14T00:55:41;5.75;;;3.33;;
54959;SDS011;40860;51.710;8.736;2024-02-14T01:05:46;4.22;;;2.80;;
54959;SDS011;40860;51.710;8.736;2024-02-14T01:09:51;3.78;;;2.22;;
54959;SDS011;40860;51.710;8.736;2024-02-14T01:13:54;4.05;;;2.80;;
54959;SDS011;40860;51.710;8.736;2024-02-14T01:17:57;4.55;;;3.00;;
54959;SDS011;40860;51.710;8.736;2024-02-14T01:22:00;5.95;;;2.90;;
54959;SDS011;40860;51.710;8.736;2024-02-14T01:26:05;5.22;;;2.83;;
54959;SDS011;40860;51.710;8.736;2024-02-14T01:30:09;5.70;;;2.58;;
54959;SDS011;40860;51.710;8.736;2024-02-14T01:34:12;3.60;;;2.60;;
54959;SDS011;40860;51.710;8.736;2024-02-14T01:38:16;4.55;;;2.28;;
54959;SDS011;40860;51.710;8.736;2024-02-14T01:42:20;6.15;;;2.67;;
54959;SDS011;40860;51.710;8.736;2024-02-14T01:46:23;4.10;;;2.25;;
54959;SDS011;40860;51.710;8.736;2024-02-14T01:50:26;3.65;;;2.28;;
54959;SDS011;40860;51.710;8.736;2024-02-14T01:54:31;4.70;;;2.33;;
54959;SDS011;40860;51.710;8.736;2024-02-14T01:58:37;4.50;;;2.40;;
54959;SDS011;40860;51.710;8.736;2024-02-14T02:02:40;3.63;;;2.00;;
54959;SDS011;40860;51.710;8.736;2024-02-14T02:06:50;4.43;;;2.00;;
54959;SDS011;40860;51.710;8.736;2024-02-14T02:10:57;4.38;;;1.88;;
54959;SDS011;40860;51.710;8.736;2024-02-14T02:15:02;4.13;;;1.85;;
54959;SDS011;40860;51.710;8.736;2024-02-14T02:19:05;3.90;;;2.00;;
54959;SDS011;40860;51.710;8.736;2024-02-14T02:23:12;2.75;;;1.60;;
54959;SDS011;40860;51.710;8.736;2024-02-14T02:27:16;2.03;;;1.50;;
54959;SDS011;40860;51.710;8.736;2024-02-14T02:31:19;3.13;;;1.67;;
54959;SDS011;40860;51.710;8.736;2024-02-14T02:35:22;3.55;;;1.58;;
54959;SDS011;40860;51.710;8.736;2024-02-14T02:39:27;2.55;;;1.50;;
54959;SDS011;40860;51.710;8.736;2024-02-14T02:43:30;3.15;;;1.65;;
54959;SDS011;40860;51.710;8.736;2024-02-14T02:47:32;5.30;;;1.80;;
54959;SDS011;40860;51.710;8.736;2024-02-14T02:51:35;5.03;;;1.63;;
54959;SDS011;40860;51.710;8.736;2024-02-14T02:55:40;2.97;;;1.60;;
54959;SDS011;40860;51.710;8.736;2024-02-14T02:59:42;2.35;;;1.58;;
54959;SDS011;40860;51.710;8.736;2024-02-14T03:03:46;2.90;;;1.38;;
54959;SDS011;40860;51.710;8.736;2024-02-14T03:07:49;2.47;;;1.30;;
54959;SDS011;40860;51.710;8.736;2024-02-14T03:11:55;2.95;;;1.30;;
54959;SDS011;40860;51.710;8.736;2024-02-14T03:15:58;3.15;;;1.50;;
54959;SDS011;40860;51.710;8.736;2024-02-14T03:20:01;2.65;;;1.13;;
54959;SDS011;40860;51.710;8.736;2024-02-14T03:24:10;1.52;;;1.15;;
54959;SDS011;40860;51.710;8.736;2024-02-14T03:28:14;2.65;;;1.30;;
54959;SDS011;40860;51.710;8.736;2024-02-14T03:32:17;1.50;;;1.40;;
54959;SDS011;40860;51.710;8.736;2024-02-14T03:36:20;2.15;;;1.10;;
54959;SDS011;40860;51.710;8.736;2024-02-14T03:40:25;2.60;;;1.17;;
54959;SDS011;40860;51.710;8.736;2024-02-14T03:44:29;3.05;;;1.30;;
54959;SDS011;40860;51.710;8.736;2024-02-14T03:48:33;1.83;;;1.20;;
54959;SDS011;40860;51.710;8.736;2024-02-14T03:52:37;3.22;;;1.23;;
54959;SDS011;40860;51.710;8.736;2024-02-14T03:56:40;2.33;;;1.50;;
54959;SDS011;40860;51.710;8.736;2024-02-14T04:00:44;2.88;;;1.75;;
54959;SDS011;40860;51.710;8.736;2024-02-14T04:04:50;1.80;;;1.15;;
54959;SDS011;40860;51.710;8.736;2024-02-14T04:08:52;2.28;;;1.40;;
54959;SDS011;40860;51.710;8.736;2024-02-14T04:12:55;1.92;;;1.38;;
54959;SDS011;40860;51.710;8.736;2024-02-14T04:17:00;1.33;;;1.02;;
54959;SDS011;40860;51.710;8.736;2024-02-14T04:21:03;1.23;;;1.00;;
54959;SDS011;40860;51.710;8.736;2024-02-14T04:25:09;1.45;;;1.20;;
54959;SDS011;40860;51.710;8.736;2024-02-14T04:29:13;1.90;;;1.40;;
54959;SDS011;40860;51.710;8.736;2024-02-14T04:33:17;2.80;;;1.30;;
54959;SDS011;40860;51.710;8.736;2024-02-14T04:37:20;2.70;;;1.70;;
54959;SDS011;40860;51.710;8.736;2024-02-14T04:41:23;3.90;;;2.13;;
54959;SDS011;40860;51.710;8.736;2024-02-14T04:45:26;2.65;;;2.05;;
54959;SDS011;40860;51.710;8.736;2024-02-14T04:49:30;3.22;;;2.13;;
54959;SDS011;40860;51.710;8.736;2024-02-14T04:53:34;3.70;;;2.55;;
54959;SDS011;40860;51.710;8.736;2024-02-14T04:57:37;4.35;;;2.88;;
54959;SDS011;40860;51.710;8.736;2024-02-14T05:01:40;4.18;;;2.97;;
54959;SDS011;40860;51.710;8.736;2024-02-14T05:05:45;2.80;;;2.50;;
54959;SDS011;40860;51.710;8.736;2024-02-14T05:09:48;2.15;;;1.63;;
54959;SDS011;40860;51.710;8.736;2024-02-14T05:13:53;3.22;;;1.95;;
54959;SDS011;40860;51.710;8.736;2024-02-14T05:17:55;1.75;;;1.60;;
54959;SDS011;40860;51.710;8.736;2024-02-14T05:22:00;1.30;;;1.15;;
54959;SDS011;40860;51.710;8.736;2024-02-14T05:26:03;1.85;;;1.60;;
54959;SDS011;40860;51.710;8.736;2024-02-14T05:30:10;1.30;;;1.20;;
54959;SDS011;40860;51.710;8.736;2024-02-14T05:34:57;1.85;;;1.30;;
54959;SDS011;40860;51.710;8.736;2024-02-14T05:39:01;1.15;;;1.00;;
54959;SDS011;40860;51.710;8.736;2024-02-14T05:43:04;1.30;;;1.20;;
54959;SDS011;40860;51.710;8.736;2024-02-14T05:47:08;1.52;;;1.10;;
54959;SDS011;40860;51.710;8.736;2024-02-14T05:51:12;2.70;;;1.13;;
54959;SDS011;40860;51.710;8.736;2024-02-14T05:55:16;2.33;;;1.20;;
54959;SDS011;40860;51.710;8.736;2024-02-14T05:59:19;1.30;;;1.20;;
54959;SDS011;40860;51.710;8.736;2024-02-14T06:03:22;1.10;;;1.02;;
54959;SDS011;40860;51.710;8.736;2024-02-14T06:07:25;2.45;;;1.20;;
54959;SDS011;40860;51.710;8.736;2024-02-14T06:11:29;2.33;;;2.05;;
54959;SDS011;40860;51.710;8.736;2024-02-14T06:15:32;3.83;;;1.73;;
54959;SDS011;40860;51.710;8.736;2024-02-14T06:19:35;1.88;;;1.52;;
54959;SDS011;40860;51.710;8.736;2024-02-14T06:23:41;3.58;;;1.48;;
54959;SDS011;40860;51.710;8.736;2024-02-14T06:27:49;1.90;;;1.38;;
54959;SDS011;40860;51.710;8.736;2024-02-14T06:31:52;2.63;;;1.70;;
54959;SDS011;40860;51.710;8.736;2024-02-14T06:35:55;1.88;;;1.50;;
54959;SDS011;40860;51.710;8.736;2024-02-14T06:39:58;1.45;;;1.35;;
54959;SDS011;40860;51.710;8.736;2024-02-14T06:44:02;2.33;;;1.60;;
54959;SDS011;40860;51.710;8.736;2024-02-14T06:48:07;2.42;;;1.73;;
54959;SDS011;40860;51.710;8.736;2024-02-14T06:52:11;3.78;;;1.40;;
54959;SDS011;40860;51.710;8.736;2024-02-14T06:56:13;1.67;;;1.50;;
54959;SDS011;40860;51.710;8.736;2024-02-14T07:00:18;4.05;;;1.85;;
54959;SDS011;40860;51.710;8.736;2024-02-14T07:04:21;3.35;;;1.67;;
54959;SDS011;40860;51.710;8.736;2024-02-14T07:08:26;1.85;;;1.63;;
54959;SDS011;40860;51.710;8.736;2024-02-14T07:12:29;1.70;;;1.60;;
54959;SDS011;40860;51.710;8.736;2024-02-14T07:16:34;2.55;;;1.60;;
54959;SDS011;40860;51.710;8.736;2024-02-14T07:20:37;1.85;;;1.50;;
54959;SDS011;40860;51.710;8.736;2024-02-14T07:24:40;1.50;;;1.40;;
54959;SDS011;40860;51.710;8.736;2024-02-14T07:28:42;3.15;;;1.77;;
54959;SDS011;40860;51.710;8.736;2024-02-14T07:32:47;1.58;;;1.48;;
54959;SDS011;40860;51.710;8.736;2024-02-14T07:36:49;1.60;;;1.50;;
54959;SDS011;40860;51.710;8.736;2024-02-14T07:40:52;2.08;;;1.83;;
54959;SDS011;40860;51.710;8.736;2024-02-14T07:44:55;3.05;;;1.70;;
54959;SDS011;40860;51.710;8.736;2024-02-14T07:48:59;2.65;;;1.80;;
54959;SDS011;40860;51.710;8.736;2024-02-14T07:53:02;3.08;;;1.55;;
54959;SDS011;40860;51.710;8.736;2024-02-14T07:57:07;2.30;;;1.70;;
54959;SDS011;40860;51.710;8.736;2024-02-14T08:01:10;3.35;;;1.50;;
54959;SDS011;40860;51.710;8.736;2024-02-14T08:05:14;4.72;;;1.60;;
54959;SDS011;40860;51.710;8.736;2024-02-14T08:09:17;2.03;;;1.42;;
54959;SDS011;40860;51.710;8.736;2024-02-14T08:13:20;1.20;;;1.10;;
54959;SDS011;40860;51.710;8.736;2024-02-14T08:17:23;1.83;;;1.30;;
54959;SDS011;40860;51.710;8.736;2024-02-14T08:21:28;1.58;;;1.48;;
54959;SDS011;40860;51.710;8.736;2024-02-14T08:25:32;1.58;;;1.40;;
54959;SDS011;40860;51.710;8.736;2024-02-14T08:29:35;1.50;;;1.40;;
54959;SDS011;40860;51.710;8.736;2024-02-14T08:33:38;2.63;;;1.45;;
54959;SDS011;40860;51.710;8.736;2024-02-14T08:37:42;2.35;;;1.75;;
54959;SDS011;40860;51.710;8.736;2024-02-14T08:41:45;2.80;;;1.50;;
54959;SDS011;40860;51.710;8.736;2024-02-14T08:45:48;10.90;;;2.72;;
54959;SDS011;40860;51.710;8.736;2024-02-14T08:49:52;4.07;;;1.92;;
54959;SDS011;40860;51.710;8.736;2024-02-14T08:53:57;9.35;;;2.90;;
54959;SDS011;40860;51.710;8.736;2024-02-14T08:58:01;2.92;;;2.08;;
54959;SDS011;40860;51.710;8.736;2024-02-14T09:02:03;8.98;;;2.50;;
54959;SDS011;40860;51.710;8.736;2024-02-14T09:06:06;4.72;;;2.53;;
54959;SDS011;40860;51.710;8.736;2024-02-14T09:10:11;3.15;;;2.47;;
54959;SDS011;40860;51.710;8.736;2024-02-14T09:14:14;2.47;;;2.28;;
54959;SDS011;40860;51.710;8.736;2024-02-14T09:18:17;2.63;;;2.22;;
54959;SDS011;40860;51.710;8.736;2024-02-14T09:22:20;3.20;;;2.28;;
54959;SDS011;40860;51.710;8.736;2024-02-14T09:26:24;2.33;;;2.00;;
54959;SDS011;40860;51.710;8.736;2024-02-14T09:30:28;6.32;;;3.00;;
54959;SDS011;40860;51.710;8.736;2024-02-14T09:34:39;9.10;;;3.90;;
54959;SDS011;40860;51.710;8.736;2024-02-14T09:38:42;15.65;;;4.03;;
54959;SDS011;40860;51.710;8.736;2024-02-14T09:42:50;26.50;;;6.05;;
54959;SDS011;40860;51.710;8.736;2024-02-14T09:46:56;12.23;;;3.42;;
54959;SDS011;40860;51.710;8.736;2024-02-14T09:51:00;3.88;;;2.30;;
54959;SDS011;40860;51.710;8.736;2024-02-14T09:55:04;2.45;;;1.70;;
54959;SDS011;40860;51.710;8.736;2024-02-14T09:59:13;1.70;;;1.60;;
54959;SDS011;40860;51.710;8.736;2024-02-14T10:03:17;1.58;;;1.40;;
54959;SDS011;40860;51.710;8.736;2024-02-14T10:07:20;3.08;;;1.20;;
54959;SDS011;40860;51.710;8.736;2024-02-14T10:11:23;1.50;;;1.40;;
54959;SDS011;40860;51.710;8.736;2024-02-14T10:15:29;3.25;;;1.60;;
54959;SDS011;40860;51.710;8.736;2024-02-14T10:19:32;2.03;;;1.58;;
54959;SDS011;40860;51.710;8.736;2024-02-14T10:23:35;22.65;;;5.38;;
54959;SDS011;40860;51.710;8.736;2024-02-14T10:27:38;5.45;;;2.58;;
54959;SDS011;40860;51.710;8.736;2024-02-14T10:31:43;1.90;;;1.70;;
54959;SDS011;40860;51.710;8.736;2024-02-14T10:35:46;2.13;;;1.50;;
54959;SDS011;40860;51.710;8.736;2024-02-14T10:39:52;5.40;;;2.40;;
54959;SDS011;40860;51.710;8.736;2024-02-14T10:44:03;3.58;;;1.90;;
54959;SDS011;40860;51.710;8.736;2024-02-14T10:48:09;1.50;;;1.40;;
54959;SDS011;40860;51.710;8.736;2024-02-14T10:52:14;2.85;;;2.10;;
54959;SDS011;40860;51.710;8.736;2024-02-14T10:56:18;2.47;;;1.85;;
54959;SDS011;40860;51.710;8.736;2024-02-14T11:00:21;2.53;;;2.08;;
54959;SDS011;40860;51.710;8.736;2024-02-14T11:04:26;2.28;;;2.08;;
54959;SDS011;40860;51.710;8.736;2024-02-14T11:08:30;3.70;;;1.92;;
54959;SDS011;40860;51.710;8.736;2024-02-14T11:12:35;4.18;;;1.90;;
54959;SDS011;40860;51.710;8.736;2024-02-14T11:16:40;1.85;;;1.73;;
54959;SDS011;40860;51.710;8.736;2024-02-14T11:20:46;2.55;;;1.88;;
54959;SDS011;40860;51.710;8.736;2024-02-14T11:24:51;3.65;;;1.90;;
54959;SDS011;40860;51.710;8.736;2024-02-14T11:28:59;2.45;;;2.05;;
54959;SDS011;40860;51.710;8.736;2024-02-14T11:33:10;2.10;;;1.90;;
54959;SDS011;40860;51.710;8.736;2024-02-14T11:37:20;2.78;;;1.80;;
54959;SDS011;40860;51.710;8.736;2024-02-14T11:41:26;2.83;;;1.42;;
54959;SDS011;40860;51.710;8.736;2024-02-14T11:45:32;2.00;;;1.40;;
54959;SDS011;40860;51.710;8.736;2024-02-14T11:49:35;1.92;;;1.83;;
54959;SDS011;40860;51.710;8.736;2024-02-14T11:53:39;1.85;;;1.58;;
54959;SDS011;40860;51.710;8.736;2024-02-14T11:57:42;3.88;;;2.00;;
54959;SDS011;40860;51.710;8.736;2024-02-14T12:01:45;2.35;;;2.25;;
54959;SDS011;40860;51.710;8.736;2024-02-14T12:05:50;4.43;;;2.60;;
54959;SDS011;40860;51.710;8.736;2024-02-14T12:09:56;2.30;;;2.10;;
54959;SDS011;40860;51.710;8.736;2024-02-14T12:14:00;2.30;;;2.10;;
54959;SDS011;40860;51.710;8.736;2024-02-14T12:18:05;4.20;;;2.80;;
54959;SDS011;40860;51.710;8.736;2024-02-14T12:22:09;3.40;;;2.20;;
54959;SDS011;40860;51.710;8.736;2024-02-14T12:26:14;2.70;;;2.50;;
54959;SDS011;40860;51.710;8.736;2024-02-14T12:30:21;2.92;;;2.55;;
54959;SDS011;40860;51.710;8.736;2024-02-14T12:34:27;3.85;;;2.25;;
54959;SDS011;40860;51.710;8.736;2024-02-14T12:38:30;2.42;;;2.13;;
54959;SDS011;40860;51.710;8.736;2024-02-14T12:42:35;2.85;;;2.05;;
54959;SDS011;40860;51.710;8.736;2024-02-14T12:46:38;3.97;;;2.55;;
54959;SDS011;40860;51.710;8.736;2024-02-14T12:50:41;6.63;;;2.50;;
54959;SDS011;40860;51.710;8.736;2024-02-14T12:54:49;2.92;;;2.30;;
54959;SDS011;40860;51.710;8.736;2024-02-14T12:58:54;3.05;;;2.75;;
54959;SDS011;40860;51.710;8.736;2024-02-14T13:02:57;7.75;;;4.80;;
54959;SDS011;40860;51.710;8.736;2024-02-14T13:07:01;3.97;;;2.97;;
54959;SDS011;40860;51.710;8.736;2024-02-14T13:11:04;3.70;;;2.42;;
54959;SDS011;40860;51.710;8.736;2024-02-14T13:15:11;2.97;;;2.33;;
54959;SDS011;40860;51.710;8.736;2024-02-14T13:19:14;3.00;;;2.17;;
54959;SDS011;40860;51.710;8.736;2024-02-14T13:23:20;2.22;;;2.03;;
54959;SDS011;40860;51.710;8.736;2024-02-14T13:27:23;3.42;;;2.08;;
54959;SDS011;40860;51.710;8.736;2024-02-14T13:31:28;2.88;;;1.85;;
54959;SDS011;40860;51.710;8.736;2024-02-14T13:35:31;4.47;;;2.33;;
54959;SDS011;40860;51.710;8.736;2024-02-14T13:39:39;1.50;;;1.40;;
54959;SDS011;40860;51.710;8.736;2024-02-14T13:43:42;4.00;;;1.83;;
54959;SDS011;40860;51.710;8.736;2024-02-14T13:47:47;2.80;;;1.85;;
54959;SDS011;40860;51.710;8.736;2024-02-14T13:51:50;3.58;;;1.42;;
54959;SDS011;40860;51.710;8.736;2024-02-14T13:55:53;2.33;;;1.48;;
54959;SDS011;40860;51.710;8.736;2024-02-14T13:59:57;2.65;;;1.25;;
54959;SDS011;40860;51.710;8.736;2024-02-14T14:04:02;1.90;;;1.40;;
54959;SDS011;40860;51.710;8.736;2024-02-14T14:08:05;3.30;;;1.67;;
54959;SDS011;40860;51.710;8.736;2024-02-14T14:12:08;1.73;;;1.42;;
54959;SDS011;40860;51.710;8.736;2024-02-14T14:16:12;2.60;;;1.67;;
54959;SDS011;40860;51.710;8.736;2024-02-14T14:20:18;1.77;;;1.55;;
54959;SDS011;40860;51.710;8.736;2024-02-14T14:24:22;1.92;;;1.70;;
54959;SDS011;40860;51.710;8.736;2024-02-14T14:28:26;4.13;;;1.83;;
54959;SDS011;40860;51.710;8.736;2024-02-14T14:32:29;3.72;;;2.50;;
54959;SDS011;40860;51.710;8.736;2024-02-14T14:36:33;2.35;;;1.40;;
54959;SDS011;40860;51.710;8.736;2024-02-14T14:40:38;1.50;;;1.40;;
54959;SDS011;40860;51.710;8.736;2024-02-14T14:44:41;3.60;;;1.70;;
54959;SDS011;40860;51.710;8.736;2024-02-14T14:48:44;3.92;;;2.30;;
54959;SDS011;40860;51.710;8.736;2024-02-14T14:52:49;4.88;;;1.55;;
54959;SDS011;40860;51.710;8.736;2024-02-14T14:56:54;4.38;;;1.85;;
54959;SDS011;40860;51.710;8.736;2024-02-14T15:00:57;3.17;;;2.10;;
54959;SDS011;40860;51.710;8.736;2024-02-14T15:05:00;5.07;;;3.17;;
54959;SDS011;40860;51.710;8.736;2024-02-14T15:09:05;2.13;;;1.35;;
54959;SDS011;40860;51.710;8.736;2024-02-14T15:13:08;3.35;;;1.42;;
54959;SDS011;40860;51.710;8.736;2024-02-14T15:17:11;1.48;;;1.30;;
54959;SDS011;40860;51.710;8.736;2024-02-14T15:21:14;3.47;;;1.05;;
54959;SDS011;40860;51.710;8.736;2024-02-14T15:25:18;1.27;;;0.90;;
54959;SDS011;40860;51.710;8.736;2024-02-14T15:29:21;1.17;;;1.02;;
54959;SDS011;40860;51.710;8.736;2024-02-14T15:33:42;2.05;;;1.15;;
54959;SDS011;40860;51.710;8.736;2024-02-14T15:37:45;1.75;;;0.77;;
54959;SDS011;40860;51.710;8.736;2024-02-14T15:41:51;1.67;;;1.00;;
54959;SDS011;40860;51.710;8.736;2024-02-14T15:45:54;0.93;;;0.60;;
54959;SDS011;40860;51.710;8.736;2024-02-14T15:49:58;0.60;;;0.60;;
54959;SDS011;40860;51.710;8.736;2024-02-14T15:54:01;1.70;;;0.80;;
54959;SDS011;40860;51.710;8.736;2024-02-14T15:58:06;1.42;;;1.00;;
54959;SDS011;40860;51.710;8.736;2024-02-14T16:02:11;1.58;;;1.20;;
54959;SDS011;40860;51.710;8.736;2024-02-14T16:06:13;1.65;;;1.50;;
54959;SDS011;40860;51.710;8.736;2024-02-14T16:10:17;2.30;;;1.20;;
54959;SDS011;40860;51.710;8.736;2024-02-14T16:14:21;1.20;;;1.10;;
54959;SDS011;40860;51.710;8.736;2024-02-14T16:18:28;2.42;;;1.00;;
54959;SDS011;40860;51.710;8.736;2024-02-14T16:22:31;2.10;;;1.25;;
54959;SDS011;40860;51.710;8.736;2024-02-14T16:26:34;1.77;;;0.98;;
54959;SDS011;40860;51.710;8.736;2024-02-14T16:30:39;3.60;;;1.17;;
54959;SDS011;40860;51.710;8.736;2024-02-14T16:34:42;3.45;;;2.40;;
54959;SDS011;40860;51.710;8.736;2024-02-14T16:38:49;1.27;;;1.20;;
54959;SDS011;40860;51.710;8.736;2024-02-14T16:42:53;2.75;;;1.17;;
54959;SDS011;40860;51.710;8.736;2024-02-14T16:46:57;1.80;;;1.58;;
54959;SDS011;40860;51.710;8.736;2024-02-14T16:51:00;1.92;;;1.42;;
54959;SDS011;40860;51.710;8.736;2024-02-14T16:55:03;1.70;;;1.25;;
54959;SDS011;40860;51.710;8.736;2024-02-14T16:59:06;2.15;;;1.25;;
54959;SDS011;40860;51.710;8.736;2024-02-14T17:03:10;3.05;;;1.60;;
54959;SDS011;40860;51.710;8.736;2024-02-14T17:07:17;1.70;;;1.60;;
54959;SDS011;40860;51.710;8.736;2024-02-14T17:11:20;1.60;;;1.50;;
54959;SDS011;40860;51.710;8.736;2024-02-14T17:15:24;2.70;;;1.70;;
54959;SDS011;40860;51.710;8.736;2024-02-14T17:19:28;2.63;;;1.65;;
54959;SDS011;40860;51.710;8.736;2024-02-14T17:23:34;1.63;;;1.15;;
54959;SDS011;40860;51.710;8.736;2024-02-14T17:27:37;1.90;;;1.30;;
54959;SDS011;40860;51.710;8.736;2024-02-14T17:31:40;1.90;;;1.45;;
54959;SDS011;40860;51.710;8.736;2024-02-14T17:35:44;1.90;;;1.00;;
54959;SDS011;40860;51.710;8.736;2024-02-14T17:39:47;1.10;;;1.00;;
54959;SDS011;40860;51.710;8.736;2024-02-14T17:43:50;1.70;;;1.00;;
54959;SDS011;40860;51.710;8.736;2024-02-14T17:47:54;2.63;;;1.25;;
54959;SDS011;40860;51.710;8.736;2024-02-14T17:51:58;2.45;;;1.20;;
54959;SDS011;40860;51.710;8.736;2024-02-14T17:56:01;1.23;;;0.82;;
54959;SDS011;40860;51.710;8.736;2024-02-14T18:00:04;2.15;;;0.95;;
54959;SDS011;40860;51.710;8.736;2024-02-14T18:04:13;2.05;;;1.10;;
54959;SDS011;40860;51.710;8.736;2024-02-14T18:08:17;1.77;;;0.95;;
54959;SDS011;40860;51.710;8.736;2024-02-14T18:12:20;1.67;;;1.20;;
54959;SDS011;40860;51.710;8.736;2024-02-14T18:16:26;1.70;;;0.75;;
54959;SDS011;40860;51.710;8.736;2024-02-14T18:20:29;2.08;;;1.10;;
54959;SDS011;40860;51.710;8.736;2024-02-14T18:24:36;0.80;;;0.80;;
54959;SDS011;40860;51.710;8.736;2024-02-14T18:28:39;0.70;;;0.70;;
54959;SDS011;40860;51.710;8.736;2024-02-14T18:32:42;0.57;;;0.57;;
54959;SDS011;40860;51.710;8.736;2024-02-14T18:36:45;0.80;;;0.70;;
54959;SDS011;40860;51.710;8.736;2024-02-14T18:40:50;1.38;;;0.85;;
54959;SDS011;40860;51.710;8.736;2024-02-14T18:44:53;1.83;;;0.90;;
54959;SDS011;40860;51.710;8.736;2024-02-14T18:48:56;1.55;;;0.90;;
54959;SDS011;40860;51.710;8.736;2024-02-14T18:52:59;0.90;;;0.82;;
54959;SDS011;40860;51.710;8.736;2024-02-14T18:57:04;0.88;;;0.88;;
54959;SDS011;40860;51.710;8.736;2024-02-14T19:01:10;2.60;;;1.10;;
54959;SDS011;40860;51.710;8.736;2024-02-14T19:05:13;3.88;;;0.90;;
54959;SDS011;40860;51.710;8.736;2024-02-14T19:09:16;1.02;;;0.98;;
54959;SDS011;40860;51.710;8.736;2024-02-14T19:13:20;1.10;;;0.90;;
54959;SDS011;40860;51.710;8.736;2024-02-14T19:17:24;2.15;;;0.80;;
54959;SDS011;40860;51.710;8.736;2024-02-14T19:21:28;0.60;;;0.60;;
54959;SDS011;40860;51.710;8.736;2024-02-14T19:25:32;0.82;;;0.70;;
54959;SDS011;40860;51.710;8.736;2024-02-14T19:29:37;0.43;;;0.43;;
54959;SDS011;40860;51.710;8.736;2024-02-14T19:33:39;0.80;;;0.50;;
54959;SDS011;40860;51.710;8.736;2024-02-14T19:37:43;0.88;;;0.50;;
54959;SDS011;40860;51.710;8.736;2024-02-14T19:41:46;0.77;;;0.70;;
54959;SDS011;40860;51.710;8.736;2024-02-14T19:45:50;1.67;;;0.60;;
54959;SDS011;40860;51.710;8.736;2024-02-14T19:49:53;2.88;;;0.90;;
54959;SDS011;40860;51.710;8.736;2024-02-14T19:53:56;1.02;;;0.80;;
54959;SDS011;40860;51.710;8.736;2024-02-14T19:57:59;1.00;;;0.80;;
54959;SDS011;40860;51.710;8.736;2024-02-14T20:02:04;1.42;;;0.98;;
54959;SDS011;40860;51.710;8.736;2024-02-14T20:06:07;1.08;;;0.98;;
54959;SDS011;40860;51.710;8.736;2024-02-14T20:10:10;1.30;;;1.20;;
54959;SDS011;40860;51.710;8.736;2024-02-14T20:14:13;1.17;;;1.00;;
54959;SDS011;40860;51.710;8.736;2024-02-14T20:18:17;1.00;;;1.00;;
54959;SDS011;40860;51.710;8.736;2024-02-14T20:22:21;1.60;;;1.38;;
54959;SDS011;40860;51.710;8.736;2024-02-14T20:26:30;1.38;;;1.27;;
54959;SDS011;40860;51.710;8.736;2024-02-14T20:30:34;1.40;;;1.30;;
54959;SDS011;40860;51.710;8.736;2024-02-14T20:34:39;2.10;;;1.35;;
54959;SDS011;40860;51.710;8.736;2024-02-14T20:39:12;1.38;;;1.27;;
54959;SDS011;40860;51.710;8.736;2024-02-14T20:44:02;2.03;;;1.65;;
54959;SDS011;40860;51.710;8.736;2024-02-14T20:48:06;2.65;;;1.52;;
54959;SDS011;40860;51.710;8.736;2024-02-14T20:52:10;1.50;;;1.40;;
54959;SDS011;40860;51.710;8.736;2024-02-14T20:56:14;1.77;;;1.67;;
54959;SDS011;40860;51.710;8.736;2024-02-14T21:00:17;1.83;;;1.73;;
54959;SDS011;40860;51.710;8.736;2024-02-14T21:04:21;2.15;;;2.05;;
54959;SDS011;40860;51.710;8.736;2024-02-14T21:08:25;1.98;;;1.77;;
54959;SDS011;40860;51.710;8.736;2024-02-14T21:12:28;1.95;;;1.85;;
54959;SDS011;40860;51.710;8.736;2024-02-14T21:16:33;2.65;;;2.13;;
54959;SDS011;40860;51.710;8.736;2024-02-14T21:20:36;1.85;;;1.75;;
54959;SDS011;40860;51.710;8.736;2024-02-14T21:24:41;2.78;;;1.60;;
54959;SDS011;40860;51.710;8.736;2024-02-14T21:28:44;1.80;;;1.67;;
54959;SDS011;40860;51.710;8.736;2024-02-14T21:32:47;3.00;;;1.60;;
54959;SDS011;40860;51.710;8.736;2024-02-14T21:36:50;1.50;;;1.40;;
54959;SDS011;40860;51.710;8.736;2024-02-14T21:40:54;1.70;;;1.60;;
54959;SDS011;40860;51.710;8.736;2024-02-14T21:44:57;1.90;;;1.70;;
54959;SDS011;40860;51.710;8.736;2024-02-14T21:49:00;1.83;;;1.73;;
54959;SDS011;40860;51.710;8.736;2024-02-14T21:53:07;1.80;;;1.70;;
54959;SDS011;40860;51.710;8.736;2024-02-14T21:57:12;2.00;;;1.90;;
54959;SDS011;40860;51.710;8.736;2024-02-14T22:01:17;2.75;;;2.05;;
54959;SDS011;40860;51.710;8.736;2024-02-14T22:05:21;3.70;;;2.30;;
54959;SDS011;40860;51.710;8.736;2024-02-14T22:09:26;2.58;;;2.38;;
54959;SDS011;40860;51.710;8.736;2024-02-14T22:13:30;2.22;;;2.13;;
54959;SDS011;40860;51.710;8.736;2024-02-14T22:17:36;2.80;;;2.60;;
54959;SDS011;40860;51.710;8.736;2024-02-14T22:21:39;2.83;;;2.63;;
54959;SDS011;40860;51.710;8.736;2024-02-14T22:25:42;3.92;;;3.60;;
54959;SDS011;40860;51.710;8.736;2024-02-14T22:29:46;3.30;;;3.10;;
54959;SDS011;40860;51.710;8.736;2024-02-14T22:33:50;3.80;;;3.50;;
54959;SDS011;40860;51.710;8.736;2024-02-14T22:37:54;3.47;;;3.28;;
54959;SDS011;40860;51.710;8.736;2024-02-14T22:41:57;3.72;;;3.42;;
54959;SDS011;40860;51.710;8.736;2024-02-14T22:46:02;4.05;;;3.70;;
54959;SDS011;40860;51.710;8.736;2024-02-14T22:50:06;3.70;;;3.40;;
54959;SDS011;40860;51.710;8.736;2024-02-14T22:54:10;3.60;;;3.38;;
54959;SDS011;40860;51.710;8.736;2024-02-14T22:58:13;3.35;;;3.05;;
54959;SDS011;40860;51.710;8.736;2024-02-14T23:02:17;2.90;;;2.70;;
54959;SDS011;40860;51.710;8.736;2024-02-14T23:06:20;3.00;;;2.70;;
54959;SDS011;40860;51.710;8.736;2024-02-14T23:10:23;3.35;;;2.55;;
54959;SDS011;40860;51.710;8.736;2024-02-14T23:14:26;2.65;;;2.22;;
54959;SDS011;40860;51.710;8.736;2024-02-14T23:58:28;1.08;;;0.70;;
